Time;durP1;ratioP1;P1;durP2;ratioP2;P2;SDS_P1;SDS_P2;PMS_P1;PMS_P2;Temp;Humidity;BMP_temperature;BMP_pressure;BME280_temperature;BME280_humidity;BME280_pressure;Samples;Min_cycle;Max_cycle;Signal;HPM_P1;HPM_P2
2024/01/04 00:00:11;;;;;;;8.82;7.05;;;;;;;19.37;48.03;100149.66;5022248;28;20042;-64
2024/01/04 00:02:38;;;;;;;8.27;7.38;;;;;;;19.38;48.00;100154.88;5022824;28;20072;-64
2024/01/04 00:05:06;;;;;;;11.15;7.38;;;;;;;19.37;47.99;100155.88;5021935;28;20042;-64
2024/01/04 00:07:33;;;;;;;9.05;7.28;;;;;;;19.37;47.62;100150.50;5023196;28;20045;-61
2024/01/04 00:10:01;;;;;;;10.32;7.13;;;;;;;19.36;47.72;100140.75;5021954;28;20050;-60
2024/01/04 00:12:28;;;;;;;9.50;7.90;;;;;;;19.37;47.43;100138.94;5022464;28;20045;-60
2024/01/04 00:14:55;;;;;;;10.05;8.32;;;;;;;19.36;47.42;100139.91;5021666;28;20042;-61
2024/01/04 00:17:23;;;;;;;8.48;7.57;;;;;;;19.36;47.46;100164.06;5028866;28;20048;-60
2024/01/04 00:19:50;;;;;;;7.75;6.85;;;;;;;19.36;47.36;100182.84;5020993;28;20068;-60
2024/01/04 00:22:17;;;;;;;8.70;7.07;;;;;;;19.35;47.35;100184.69;5021592;28;20046;-60
2024/01/04 00:24:45;;;;;;;9.38;7.57;;;;;;;19.35;47.37;100184.69;5022068;28;20046;-61
2024/01/04 00:27:12;;;;;;;9.48;7.43;;;;;;;19.35;47.26;100189.22;5025899;28;20499;-61
2024/01/04 00:29:41;;;;;;;8.02;6.78;;;;;;;19.34;47.32;100188.38;5033415;28;20065;-60
2024/01/04 00:32:10;;;;;;;8.43;7.18;;;;;;;19.35;47.14;100189.22;5020576;28;20053;-59
2024/01/04 00:34:37;;;;;;;8.02;6.95;;;;;;;19.35;47.21;100194.59;5025086;28;20049;-59
2024/01/04 00:37:04;;;;;;;8.00;7.05;;;;;;;19.34;47.27;100184.84;5033764;28;20053;-62
2024/01/04 00:39:32;;;;;;;7.82;6.18;;;;;;;19.34;47.18;100187.53;5021184;28;20048;-63
2024/01/04 00:41:59;;;;;;;9.63;7.00;;;;;;;19.33;47.19;100189.38;5020125;28;20057;-63
2024/01/04 00:44:27;;;;;;;7.30;6.47;;;;;;;19.33;47.31;100178.63;5021685;28;20041;-64
2024/01/04 00:46:54;;;;;;;9.48;6.88;;;;;;;19.33;47.28;100186.69;5036357;28;20041;-59
2024/01/04 00:49:21;;;;;;;9.10;7.45;;;;;;;19.33;47.38;100191.22;5021597;28;20050;-59
2024/01/04 00:51:50;;;;;;;8.23;7.22;;;;;;;19.33;47.39;100207.31;5022502;28;20061;-59
2024/01/04 00:54:18;;;;;;;8.38;7.43;;;;;;;19.32;47.34;100205.59;5020119;28;20054;-59
2024/01/04 00:56:45;;;;;;;7.68;6.85;;;;;;;19.32;47.22;100194.88;5026059;28;20052;-63
2024/01/04 00:59:12;;;;;;;9.02;7.25;;;;;;;19.31;47.33;100198.56;5021444;28;20041;-63
2024/01/04 01:01:41;;;;;;;8.05;7.10;;;;;;;19.30;47.35;100186.13;5021897;28;20061;-63
2024/01/04 01:04:08;;;;;;;7.90;6.32;;;;;;;19.31;47.39;100203.94;5021401;28;20042;-63
2024/01/04 01:06:38;;;;;;;8.90;7.70;;;;;;;19.30;47.31;100218.34;5034391;28;20052;-60
2024/01/04 01:09:05;;;;;;;9.00;7.80;;;;;;;19.28;47.23;100229.22;5017749;28;20056;-59
2024/01/04 01:11:33;;;;;;;7.93;6.95;;;;;;;19.29;47.37;100220.19;5021762;28;20077;-59
2024/01/04 01:14:00;;;;;;;8.15;6.63;;;;;;;19.29;47.50;100224.72;5021684;28;20046;-59
2024/01/04 01:16:28;;;;;;;10.18;7.75;;;;;;;19.28;47.55;100231.88;5025647;28;20052;-61
2024/01/04 01:18:56;;;;;;;9.75;7.55;;;;;;;19.27;47.48;100240.94;5021570;28;20050;-60
2024/01/04 01:21:23;;;;;;;10.98;8.10;;;;;;;19.26;47.52;100244.63;5020974;28;20441;-59
2024/01/04 01:23:51;;;;;;;8.68;7.78;;;;;;;19.25;47.39;100233.03;5020816;28;20054;-59
2024/01/04 01:26:18;;;;;;;8.90;7.32;;;;;;;19.25;47.50;100238.41;5026299;28;20055;-61
2024/01/04 01:28:46;;;;;;;10.48;7.85;;;;;;;19.25;47.39;100225.00;5020906;28;20492;-64
2024/01/04 01:31:13;;;;;;;9.82;7.13;;;;;;;19.24;47.64;100231.38;5019756;28;20056;-65
2024/01/04 01:33:43;;;;;;;8.73;6.60;;;;;;;19.23;47.64;100237.69;5022557;28;20054;-65
2024/01/04 01:36:11;;;;;;;8.73;7.22;;;;;;;19.24;47.64;100225.13;5020251;28;20052;-64
2024/01/04 01:38:38;;;;;;;9.93;7.65;;;;;;;19.24;47.64;100230.50;5020278;28;20060;-60
2024/01/04 01:41:06;;;;;;;9.40;7.15;;;;;;;19.23;47.78;100245.75;5020083;28;20050;-60
2024/01/04 01:43:33;;;;;;;7.95;6.97;;;;;;;19.23;47.90;100261.00;5020280;28;20046;-60
2024/01/04 01:46:02;;;;;;;7.78;6.82;;;;;;;19.22;47.60;100257.47;5026944;28;20048;-60
2024/01/04 01:48:29;;;;;;;8.40;6.88;;;;;;;19.22;47.67;100262.00;5019400;28;20060;-64
2024/01/04 01:50:58;;;;;;;8.65;7.13;;;;;;;19.21;47.83;100282.63;5020974;28;20046;-64
2024/01/04 01:53:26;;;;;;;8.93;7.30;;;;;;;19.22;47.89;100276.25;5020877;28;20053;-63
2024/01/04 01:55:54;;;;;;;6.35;5.75;;;;;;;19.20;47.93;100278.25;5023586;28;20041;-64
2024/01/04 01:58:22;;;;;;;8.95;7.03;;;;;;;19.20;47.98;100269.34;5020446;28;20077;-60
2024/01/04 02:00:50;;;;;;;9.40;7.13;;;;;;;19.19;47.88;100275.69;5020016;28;20057;-59
2024/01/04 02:03:17;;;;;;;8.30;7.38;;;;;;;19.19;48.01;100279.22;5023380;28;20053;-60
2024/01/04 02:05:45;;;;;;;11.05;7.25;;;;;;;19.18;47.91;100285.59;5025625;28;20041;-60
2024/01/04 02:08:13;;;;;;;7.18;6.43;;;;;;;19.18;48.06;100285.59;5019923;28;20053;-64
2024/01/04 02:10:40;;;;;;;7.57;6.63;;;;;;;19.18;48.04;100277.53;5021036;28;20057;-64
2024/01/04 02:13:09;;;;;;;8.48;7.55;;;;;;;19.17;48.06;100285.75;5023526;28;20050;-64
2024/01/04 02:15:36;;;;;;;9.00;6.78;;;;;;;19.18;48.14;100295.50;5023960;28;20463;-64
2024/01/04 02:18:04;;;;;;;8.07;7.28;;;;;;;19.16;48.07;100287.59;5020613;28;20053;-60
2024/01/04 02:20:32;;;;;;;8.05;6.72;;;;;;;19.15;48.33;100291.25;5019603;28;20102;-59
2024/01/04 02:23:00;;;;;;;7.80;6.53;;;;;;;19.15;48.10;100304.66;5022183;28;20415;-60
2024/01/04 02:25:31;;;;;;;8.13;6.63;;;;;;;19.17;48.07;100310.75;5027630;28;20053;-60
2024/01/04 02:27:58;;;;;;;7.40;6.65;;;;;;;19.16;48.14;100308.19;5019290;28;20148;-60
2024/01/04 02:30:26;;;;;;;7.75;6.95;;;;;;;19.15;48.12;100295.75;5020586;28;20129;-60
2024/01/04 02:32:53;;;;;;;7.90;7.07;;;;;;;19.14;48.20;100294.91;5024620;28;20058;-60
2024/01/04 02:35:21;;;;;;;9.20;7.22;;;;;;;19.13;48.11;100303.97;5024133;28;20049;-58
2024/01/04 02:37:48;;;;;;;7.80;6.85;;;;;;;19.14;48.15;100286.03;5019450;28;20060;-59
2024/01/04 02:40:16;;;;;;;7.88;6.78;;;;;;;19.13;48.03;100276.28;5020550;28;20050;-59
2024/01/04 02:42:43;;;;;;;7.38;6.57;;;;;;;19.12;48.12;100279.94;5023591;28;20053;-59
2024/01/04 02:45:11;;;;;;;7.43;6.32;;;;;;;19.13;48.24;100284.34;5027707;28;20041;-59
2024/01/04 02:47:38;;;;;;;8.65;7.40;;;;;;;19.13;48.10;100282.50;5024961;28;20150;-63
2024/01/04 02:50:06;;;;;;;8.15;6.60;;;;;;;19.12;48.17;100271.91;5024481;28;20045;-63
2024/01/04 02:52:33;;;;;;;8.50;7.10;;;;;;;19.12;48.05;100285.31;5028952;28;20050;-63
2024/01/04 02:55:00;;;;;;;7.10;6.10;;;;;;;19.13;48.11;100276.28;5027812;28;20041;-63
2024/01/04 02:57:28;;;;;;;7.43;6.68;;;;;;;19.13;48.21;100277.13;5024526;28;20500;-63
2024/01/04 02:59:55;;;;;;;7.93;6.78;;;;;;;19.11;48.05;100281.78;5024658;28;20484;-64
2024/01/04 03:02:22;;;;;;;7.78;6.72;;;;;;;19.11;48.03;100275.56;5028147;28;20056;-63
2024/01/04 03:04:50;;;;;;;7.40;6.70;;;;;;;19.11;48.17;100278.25;5027833;28;20045;-63
2024/01/04 03:07:17;;;;;;;8.50;6.57;;;;;;;19.11;48.13;100283.63;5024599;28;20046;-59
2024/01/04 03:09:44;;;;;;;7.95;6.78;;;;;;;19.10;48.05;100273.91;5024200;28;20072;-59
2024/01/04 03:12:12;;;;;;;7.45;6.65;;;;;;;19.10;48.11;100273.91;5027672;28;20389;-59
2024/01/04 03:14:39;;;;;;;7.80;6.32;;;;;;;19.09;48.13;100262.31;5028028;28;20040;-59
2024/01/04 03:17:07;;;;;;;7.05;6.00;;;;;;;19.09;48.11;100278.41;5024524;28;20496;-63
2024/01/04 03:19:34;;;;;;;7.20;6.43;;;;;;;19.09;48.05;100270.38;5023924;28;20045;-63
2024/01/04 03:22:02;;;;;;;7.15;6.28;;;;;;;19.10;48.26;100272.06;5027855;28;20488;-63
2024/01/04 03:24:31;;;;;;;7.18;6.47;;;;;;;19.09;48.29;100270.38;5028149;28;20052;-63
2024/01/04 03:26:58;;;;;;;8.18;5.90;;;;;;;19.09;48.04;100261.47;5024174;28;20053;-63
2024/01/04 03:29:26;;;;;;;6.78;6.07;;;;;;;19.09;48.13;100258.78;5023946;28;20509;-63
2024/01/04 03:31:53;;;;;;;6.65;6.05;;;;;;;19.09;48.09;100259.63;5028188;28;20072;-63
2024/01/04 03:34:20;;;;;;;6.68;5.88;;;;;;;19.08;48.25;100260.63;5027820;28;20914;-63
2024/01/04 03:36:48;;;;;;;8.00;6.85;;;;;;;19.08;48.03;100257.06;5024131;28;20064;-59
2024/01/04 03:39:15;;;;;;;7.20;5.72;;;;;;;19.07;48.32;100248.19;5024228;28;20046;-59
2024/01/04 03:41:43;;;;;;;6.00;5.40;;;;;;;19.07;48.07;100239.28;5028257;28;20453;-59
2024/01/04 03:44:10;;;;;;;7.70;6.85;;;;;;;19.07;48.25;100258.06;5024755;28;20049;-63
2024/01/04 03:46:37;;;;;;;7.88;6.00;;;;;;;19.08;48.19;100265.13;5024244;28;20048;-63
2024/01/04 03:49:05;;;;;;;6.80;5.90;;;;;;;19.07;48.20;100266.97;5023950;28;20073;-64
2024/01/04 03:51:33;;;;;;;6.13;5.22;;;;;;;19.05;48.19;100268.97;5027904;28;20480;-64
2024/01/04 03:54:00;;;;;;;6.57;5.57;;;;;;;19.06;48.19;100272.50;5027479;28;20376;-64
2024/01/04 03:56:27;;;;;;;6.70;6.03;;;;;;;19.04;48.09;100267.28;5022283;28;20042;-64
2024/01/04 03:58:55;;;;;;;6.38;5.72;;;;;;;19.04;48.20;100269.97;5023788;28;20435;-59
2024/01/04 04:01:22;;;;;;;7.03;6.10;;;;;;;19.03;48.24;100287.88;5027928;28;20045;-59
2024/01/04 04:03:49;;;;;;;6.85;6.15;;;;;;;19.02;48.39;100279.97;5027692;28;20053;-59
2024/01/04 04:06:23;;;;;;;6.75;6.00;;;;;;;19.02;48.27;100282.66;5023363;28;20046;-58
2024/01/04 04:08:50;;;;;;;6.72;5.80;;;;;;;19.02;48.12;100282.66;5023973;28;20050;-64
2024/01/04 04:11:18;;;;;;;6.15;5.55;;;;;;;19.02;48.29;100279.97;5029130;28;20612;-64
2024/01/04 04:13:45;;;;;;;6.45;5.75;;;;;;;19.02;48.17;100288.03;5025831;28;20491;-64
2024/01/04 04:16:13;;;;;;;6.53;5.75;;;;;;;19.00;48.17;100290.84;5023513;28;20038;-64
2024/01/04 04:18:40;;;;;;;6.93;5.60;;;;;;;19.02;48.25;100296.06;5023206;28;20061;-63
2024/01/04 04:21:08;;;;;;;6.40;5.80;;;;;;;19.01;48.12;100280.97;5028748;28;20514;-64
2024/01/04 04:23:35;;;;;;;6.65;5.95;;;;;;;19.00;48.29;100288.19;5026237;28;20049;-64
2024/01/04 04:26:05;;;;;;;7.28;6.15;;;;;;;18.99;48.17;100297.19;5021979;28;20045;-64
2024/01/04 04:28:33;;;;;;;5.72;5.13;;;;;;;18.99;48.31;100290.97;5022007;28;20069;-64
2024/01/04 04:31:00;;;;;;;6.78;6.07;;;;;;;18.99;48.21;100280.25;5027769;28;20057;-65
2024/01/04 04:33:27;;;;;;;6.35;5.75;;;;;;;18.98;48.19;100281.25;5025276;28;20050;-65
2024/01/04 04:35:55;;;;;;;6.38;5.63;;;;;;;18.98;48.09;100290.13;5028731;28;20056;-65
2024/01/04 04:38:28;;;;;;;;;;;;;;;18.96;48.12;100281.41;5023740;28;20061;-64
2024/01/04 04:40:57;;;;;;;6.20;5.47;;;;;;;18.97;48.18;100291.13;5029626;28;19928;-64
2024/01/04 04:43:25;;;;;;;6.53;5.72;;;;;;;18.97;48.04;100295.66;5023225;28;20049;-65
2024/01/04 04:45:52;;;;;;;6.82;5.85;;;;;;;18.97;48.01;100309.91;5018728;28;20042;-64
2024/01/04 04:48:19;;;;;;;6.75;5.70;;;;;;;18.97;47.95;100323.31;5022938;28;20046;-64
2024/01/04 04:50:48;;;;;;;5.80;5.20;;;;;;;18.96;47.83;100335.06;5035401;28;20052;-65
2024/01/04 04:53:16;;;;;;;6.68;5.75;;;;;;;18.96;47.95;100348.47;5024480;28;20045;-64
2024/01/04 04:55:43;;;;;;;6.47;5.88;;;;;;;18.97;47.84;100354.66;5026095;28;20480;-64
2024/01/04 04:58:11;;;;;;;6.10;5.50;;;;;;;18.97;48.07;100360.03;5026572;28;20061;-63
2024/01/04 05:00:38;;;;;;;6.97;6.22;;;;;;;18.97;48.03;100357.34;5029162;28;20045;-65
2024/01/04 05:03:06;;;;;;;6.28;5.13;;;;;;;18.96;47.93;100356.50;5024053;28;20049;-64
2024/01/04 05:05:33;;;;;;;6.10;5.47;;;;;;;18.96;48.08;100340.41;5022382;28;20072;-64
2024/01/04 05:08:04;;;;;;;6.10;5.50;;;;;;;18.96;48.12;100340.41;5023309;28;20400;-59
2024/01/04 05:10:31;;;;;;;5.90;5.30;;;;;;;18.95;48.03;100341.38;5033114;28;20052;-60
2024/01/04 05:13:01;;;;;;;6.13;5.53;;;;;;;18.95;48.22;100344.06;5023316;28;20068;-59
2024/01/04 05:15:29;;;;;;;6.25;5.60;;;;;;;18.96;48.13;100347.63;5023139;28;20056;-59
2024/01/04 05:17:56;;;;;;;5.82;5.22;;;;;;;18.95;48.29;100353.94;5023754;28;20400;-59
2024/01/04 05:20:24;;;;;;;6.82;6.10;;;;;;;18.95;48.15;100357.47;5028310;28;20407;-59
2024/01/04 05:22:51;;;;;;;5.80;5.20;;;;;;;18.95;48.12;100362.00;5022660;28;20060;-59
2024/01/04 05:25:18;;;;;;;6.20;5.60;;;;;;;18.94;48.27;100358.47;5024265;28;20046;-60
2024/01/04 05:27:46;;;;;;;7.15;5.80;;;;;;;18.94;48.20;100363.84;5023599;28;20046;-64
2024/01/04 05:30:13;;;;;;;5.95;5.35;;;;;;;18.93;48.07;100356.78;5028209;28;20060;-65
2024/01/04 05:32:41;;;;;;;6.85;5.85;;;;;;;18.95;48.18;100364.69;5022991;28;20050;-65
2024/01/04 05:35:09;;;;;;;6.22;5.63;;;;;;;18.95;47.96;100378.09;5022139;28;20408;-60
2024/01/04 05:37:36;;;;;;;6.72;5.88;;;;;;;18.93;48.21;100367.50;5023800;28;20038;-60
2024/01/04 05:40:05;;;;;;;6.40;5.72;;;;;;;18.93;48.10;100366.66;5028023;28;20052;-60
2024/01/04 05:42:32;;;;;;;6.25;5.65;;;;;;;18.94;48.07;100373.72;5022583;28;20053;-59
2024/01/04 05:44:59;;;;;;;6.03;5.25;;;;;;;18.93;48.06;100372.88;5021435;28;20038;-60
2024/01/04 05:47:27;;;;;;;6.78;5.60;;;;;;;18.92;48.23;100381.94;5029298;28;20045;-60
2024/01/04 05:49:55;;;;;;;6.25;5.53;;;;;;;18.93;48.10;100382.75;5028786;28;20075;-58
2024/01/04 05:52:23;;;;;;;6.28;5.68;;;;;;;18.92;48.06;100375.69;5022693;28;20054;-59
2024/01/04 05:54:50;;;;;;;6.90;5.82;;;;;;;18.92;48.02;100376.56;5021129;28;20488;-60
2024/01/04 05:57:18;;;;;;;6.70;6.05;;;;;;;18.90;48.09;100377.69;5022381;28;20045;-64
2024/01/04 05:59:45;;;;;;;6.35;5.68;;;;;;;18.90;48.07;100364.25;5027694;28;20049;-64
2024/01/04 06:02:12;;;;;;;6.28;5.68;;;;;;;18.89;48.20;100366.09;5022673;28;20408;-65
2024/01/04 06:04:40;;;;;;;6.22;5.57;;;;;;;18.90;48.06;100366.94;5022787;28;20041;-65
2024/01/04 06:07:07;;;;;;;7.00;5.72;;;;;;;18.90;48.14;100375.00;5023947;28;20038;-65
2024/01/04 06:09:35;;;;;;;7.05;5.65;;;;;;;18.90;47.93;100385.72;5027888;28;20048;-65
2024/01/04 06:12:02;;;;;;;6.78;5.20;;;;;;;18.89;48.05;100392.06;5023037;28;20046;-65
2024/01/04 06:14:32;;;;;;;6.35;5.50;;;;;;;18.89;48.14;100409.00;5022287;28;20050;-61
2024/01/04 06:17:00;;;;;;;6.25;5.65;;;;;;;18.88;48.01;100399.28;5025082;28;20349;-65
2024/01/04 06:19:29;;;;;;;6.07;5.47;;;;;;;18.88;48.04;100396.59;5031818;28;20057;-65
2024/01/04 06:21:56;;;;;;;7.43;5.07;;;;;;;18.87;48.08;100404.75;5026156;28;20049;-63
2024/01/04 06:24:24;;;;;;;5.80;5.30;;;;;;;18.87;48.10;100399.41;5026103;28;20050;-65
2024/01/04 06:26:52;;;;;;;5.82;5.20;;;;;;;18.86;48.25;100405.75;5029720;28;20053;-61
2024/01/04 06:29:19;;;;;;;5.57;4.78;;;;;;;18.86;48.05;100413.81;5031249;28;20097;-64
2024/01/04 06:31:47;;;;;;;5.95;5.20;;;;;;;18.86;48.12;100405.75;5026137;28;20396;-65
2024/01/04 06:34:15;;;;;;;5.85;4.97;;;;;;;18.86;48.28;100411.13;5026173;28;20050;-65
2024/01/04 06:36:42;;;;;;;7.57;5.22;;;;;;;18.85;48.11;100406.75;5037156;28;20042;-60
2024/01/04 06:39:10;;;;;;;5.45;4.80;;;;;;;18.87;47.98;100412.81;5031053;28;20053;-61
2024/01/04 06:41:39;;;;;;;5.85;5.00;;;;;;;18.87;47.99;100410.13;5025454;28;20412;-60
2024/01/04 06:44:06;;;;;;;5.50;5.00;;;;;;;18.87;48.00;100415.50;5025733;28;20060;-60
2024/01/04 06:46:33;;;;;;;6.68;5.93;;;;;;;18.86;48.06;100395.88;5026651;28;20408;-65
2024/01/04 06:49:01;;;;;;;5.85;5.25;;;;;;;18.86;48.09;100387.84;5025721;28;20045;-64
2024/01/04 06:51:28;;;;;;;6.03;5.10;;;;;;;18.86;47.96;100373.56;5025256;28;20042;-65
2024/01/04 06:53:56;;;;;;;4.95;4.47;;;;;;;18.86;48.11;100360.16;5025973;28;20419;-65
2024/01/04 06:56:27;;;;;;;6.50;4.93;;;;;;;18.84;48.09;100351.41;5037233;28;20053;-62
2024/01/04 06:58:55;;;;;;;4.63;4.05;;;;;;;18.85;47.88;100364.69;5029617;28;20766;-65
2024/01/04 07:01:22;;;;;;;5.45;4.55;;;;;;;18.85;47.99;100374.56;5025825;28;20057;-65
2024/01/04 07:03:50;;;;;;;5.82;5.18;;;;;;;18.86;47.87;100401.25;5025356;28;20054;-64
2024/01/04 07:06:19;;;;;;;5.43;4.93;;;;;;;18.86;48.04;100417.34;5029860;28;20805;-64
2024/01/04 07:08:48;;;;;;;6.32;4.88;;;;;;;18.87;47.89;100423.53;5029112;28;20045;-59
2024/01/04 07:11:15;;;;;;;5.40;4.63;;;;;;;18.88;47.80;100449.38;5024975;28;20038;-60
2024/01/04 07:13:42;;;;;;;5.63;5.03;;;;;;;18.87;47.74;100456.56;5025339;28;20053;-60
2024/01/04 07:16:10;;;;;;;5.10;4.60;;;;;;;18.86;47.71;100452.19;5030991;28;20069;-60
2024/01/04 07:18:37;;;;;;;5.35;4.85;;;;;;;18.86;47.55;100459.41;5028745;28;20514;-65
2024/01/04 07:21:05;;;;;;;6.55;4.57;;;;;;;18.86;47.66;100480.84;5025203;28;20050;-64
2024/01/04 07:23:33;;;;;;;6.45;5.00;;;;;;;18.85;47.51;100476.50;5025471;28;20057;-65
2024/01/04 07:26:00;;;;;;;5.15;4.57;;;;;;;18.84;47.50;100491.72;5030491;28;20060;-65
2024/01/04 07:28:29;;;;;;;5.25;4.70;;;;;;;18.85;47.37;100508.66;5027649;28;20053;-66
2024/01/04 07:30:56;;;;;;;5.47;4.82;;;;;;;18.85;47.37;100508.66;5025355;28;20045;-65
2024/01/04 07:33:26;;;;;;;5.22;4.57;;;;;;;18.83;47.38;100503.41;5025050;28;20400;-66
2024/01/04 07:35:53;;;;;;;5.45;4.88;;;;;;;18.84;47.38;100501.59;5041215;28;20056;-65
2024/01/04 07:38:21;;;;;;;5.55;4.63;;;;;;;18.83;47.38;100494.53;5024968;28;20072;-60
2024/01/04 07:40:48;;;;;;;5.32;4.45;;;;;;;18.83;47.08;100489.16;5024822;28;20041;-59
2024/01/04 07:43:16;;;;;;;5.90;4.60;;;;;;;18.81;47.32;100500.03;5025222;28;20046;-59
2024/01/04 07:45:43;;;;;;;5.47;4.65;;;;;;;18.81;47.20;100494.69;5031716;28;20049;-59
2024/01/04 07:48:11;;;;;;;4.82;4.10;;;;;;;18.81;47.36;100481.28;5017534;28;20046;-59
2024/01/04 07:50:40;;;;;;;5.07;4.43;;;;;;;18.80;47.22;100482.25;5025396;28;20385;-59
2024/01/04 07:53:07;;;;;;;5.07;4.57;;;;;;;18.80;47.25;100478.72;5024843;28;20057;-59
2024/01/04 07:55:34;;;;;;;5.28;4.53;;;;;;;18.80;47.10;100473.34;5029065;28;20384;-60
2024/01/04 07:58:02;;;;;;;5.68;4.35;;;;;;;18.78;47.20;100487.75;5025110;28;20104;-59
2024/01/04 08:00:30;;;;;;;5.10;4.55;;;;;;;18.80;47.15;100474.22;5024770;28;20061;-60
2024/01/04 08:02:57;;;;;;;5.72;4.80;;;;;;;18.78;47.14;100477.03;5024758;28;20072;-59
2024/01/04 08:05:25;;;;;;;5.30;4.47;;;;;;;18.77;47.03;100456.56;5031495;28;20064;-59
2024/01/04 08:07:52;;;;;;;5.93;4.90;;;;;;;18.77;47.19;100451.19;5025435;28;20049;-60
2024/01/04 08:10:20;;;;;;;5.55;4.95;;;;;;;18.77;47.18;100453.88;5024752;28;20050;-59
2024/01/04 08:12:47;;;;;;;4.85;4.28;;;;;;;18.76;46.98;100430.72;5024737;28;20053;-59
2024/01/04 08:15:15;;;;;;;5.40;4.20;;;;;;;18.76;47.02;100414.66;5031777;28;20047;-60
2024/01/04 08:17:42;;;;;;;5.93;4.85;;;;;;;18.76;47.17;100411.97;5024585;28;20049;-59
2024/01/04 08:20:10;;;;;;;5.38;4.72;;;;;;;18.80;47.16;100406.28;5024638;28;20061;-60
2024/01/04 08:22:38;;;;;;;5.25;4.63;;;;;;;18.80;47.00;100403.63;5031322;28;20034;-59
2024/01/04 08:25:06;;;;;;;4.78;4.18;;;;;;;18.81;47.23;100405.34;5031906;28;20349;-60
2024/01/04 08:27:34;;;;;;;5.07;4.20;;;;;;;18.81;47.06;100402.66;5026463;28;20045;-65
2024/01/04 08:30:01;;;;;;;4.57;3.95;;;;;;;18.82;47.21;100391.78;5024243;28;20416;-64
2024/01/04 08:32:29;;;;;;;5.25;4.60;;;;;;;18.83;47.00;100404.19;5024600;28;20042;-64
2024/01/04 08:34:56;;;;;;;5.50;4.75;;;;;;;18.84;47.05;100423.81;5031213;28;20051;-64
2024/01/04 08:37:24;;;;;;;5.95;5.35;;;;;;;18.84;47.20;100429.16;5028927;28;20072;-60
2024/01/04 08:39:52;;;;;;;5.78;4.53;;;;;;;18.86;47.14;100454.03;5024231;28;20385;-60
2024/01/04 08:42:20;;;;;;;5.22;4.28;;;;;;;18.86;47.23;100449.50;5023383;28;20046;-58
2024/01/04 08:44:47;;;;;;;4.88;4.30;;;;;;;18.87;47.25;100461.09;5030518;28;20045;-59
2024/01/04 08:47:15;;;;;;;4.93;4.35;;;;;;;18.89;47.38;100464.50;5026459;28;20048;-60
2024/01/04 08:49:42;;;;;;;7.72;5.80;;;;;;;18.83;46.82;100475.75;5017265;28;20053;-66
2024/01/04 08:52:10;;;;;;;8.10;7.13;;;;;;;18.73;46.12;100473.06;5023019;28;20043;-67
2024/01/04 08:54:38;;;;;;;8.57;7.47;;;;;;;18.56;45.65;100469.16;5028048;28;20396;-66
2024/01/04 08:57:07;;;;;;;11.52;8.52;;;;;;;18.38;45.07;100479.66;5027825;28;20420;-65
2024/01/04 08:59:35;;;;;;;8.73;7.82;;;;;;;18.21;44.62;100489.16;5023935;28;20042;-64
2024/01/04 09:02:03;;;;;;;11.02;8.90;;;;;;;18.06;45.14;100492.31;5024275;28;20050;-66
2024/01/04 09:04:30;;;;;;;9.80;8.77;;;;;;;17.92;45.18;100480.13;5030827;28;20048;-65
2024/01/04 09:06:58;;;;;;;10.13;9.07;;;;;;;17.87;45.25;100496.59;5025959;28;20046;-57
2024/01/04 09:09:25;;;;;;;9.38;7.95;;;;;;;17.78;45.38;100511.59;5023891;28;20389;-57
2024/01/04 09:11:53;;;;;;;9.27;8.30;;;;;;;17.76;45.73;100510.03;5031911;28;20049;-57
2024/01/04 09:14:20;;;;;;;9.35;7.95;;;;;;;17.76;45.86;100516.22;5031210;28;20142;-59
2024/01/04 09:16:48;;;;;;;11.23;8.20;;;;;;;17.74;46.02;100506.56;5026268;28;20360;-64
2024/01/04 09:19:17;;;;;;;11.43;9.00;;;;;;;17.71;45.82;100523.78;5023554;28;20049;-66
2024/01/04 09:21:49;;;;;;;9.48;8.55;;;;;;;17.63;45.85;100510.19;5024669;28;20057;-66
2024/01/04 09:24:18;;;;;;;10.00;9.00;;;;;;;17.62;46.25;100519.16;5029595;28;20052;-65
2024/01/04 09:26:46;;;;;;;9.38;8.00;;;;;;;17.65;46.27;100518.06;5024637;28;20056;-56
2024/01/04 09:29:14;;;;;;;9.70;7.85;;;;;;;17.65;46.37;100521.59;5023459;28;20050;-57
2024/01/04 09:31:41;;;;;;;11.35;8.15;;;;;;;17.66;46.54;100526.00;5026349;28;20057;-54
2024/01/04 09:34:09;;;;;;;8.88;7.38;;;;;;;17.69;46.33;100522.19;5029025;28;20045;-56
2024/01/04 09:36:37;;;;;;;10.75;8.63;;;;;;;17.70;46.34;100530.13;5024533;28;20431;-56
2024/01/04 09:39:04;;;;;;;11.07;8.85;;;;;;;17.66;46.17;100534.03;5023289;28;20054;-55
2024/01/04 09:41:33;;;;;;;9.73;8.57;;;;;;;17.64;46.13;100530.59;5025864;28;20041;-57
2024/01/04 09:44:05;;;;;;;10.32;8.40;;;;;;;17.62;46.27;100540.56;5028595;28;20406;-56
2024/01/04 09:46:35;;;;;;;9.17;6.70;;;;;;;17.69;46.31;100531.06;5026673;28;20404;-56
2024/01/04 09:49:03;;;;;;;8.90;8.00;;;;;;;17.76;46.02;100537.66;5022394;28;20065;-57
2024/01/04 09:51:37;;;;;;;10.88;8.05;;;;;;;17.83;45.93;100538.00;5021795;28;20057;-56
2024/01/04 09:54:08;;;;;;;10.35;7.50;;;;;;;17.90;45.89;100535.63;5023809;28;20042;-57
2024/01/04 09:56:51;;;;;;;10.43;8.55;;;;;;;17.94;45.67;100534.38;5025202;28;20049;-56
2024/01/04 09:59:21;;;;;;;11.02;8.23;;;;;;;17.96;45.56;100535.13;5027084;28;20488;-56
2024/01/04 10:01:49;;;;;;;9.05;7.28;;;;;;;18.00;45.61;100528.53;5027893;28;20050;-57
2024/01/04 10:04:16;;;;;;;10.25;8.10;;;;;;;18.07;45.52;100529.72;5022255;28;20057;-60
2024/01/04 10:06:45;;;;;;;12.05;8.63;;;;;;;18.11;45.29;100525.78;5020146;28;20389;-61
2024/01/04 10:09:24;;;;;;;9.65;7.45;;;;;;;18.12;45.05;100527.47;5025592;28;20050;-62
2024/01/04 10:11:58;;;;;;;9.82;7.63;;;;;;;18.17;44.95;100524.41;5023015;28;20052;-62
2024/01/04 10:14:27;;;;;;;10.52;7.43;;;;;;;18.19;45.01;100525.09;5022914;28;20353;-62
2024/01/04 10:17:04;;;;;;;9.27;7.78;;;;;;;18.21;45.10;100520.47;5025189;28;20392;-59
2024/01/04 10:19:32;;;;;;;9.57;7.53;;;;;;;18.21;44.94;100523.16;5027487;28;20038;-57
2024/01/04 10:22:02;;;;;;;10.68;8.18;;;;;;;18.20;44.75;100511.59;5022766;28;20057;-59
2024/01/04 10:24:38;;;;;;;10.75;8.13;;;;;;;18.20;44.68;100508.06;5023021;28;20048;-57
2024/01/04 10:27:08;;;;;;;10.35;8.35;;;;;;;18.19;44.76;100515.25;5028264;28;20056;-61
2024/01/04 10:29:38;;;;;;;9.63;8.68;;;;;;;18.17;44.73;100503.81;5025075;28;20045;-60
2024/01/04 10:32:09;;;;;;;11.82;8.77;;;;;;;18.20;44.83;100508.06;5023282;28;20049;-61
2024/01/04 10:34:38;;;;;;;13.77;10.20;;;;;;;18.15;44.70;100497.75;5023648;28;20046;-60
2024/01/04 10:37:22;;;;;;;10.27;9.10;;;;;;;18.17;44.59;100498.47;5028070;28;20052;-60
2024/01/04 10:39:57;;;;;;;10.27;9.18;;;;;;;18.17;44.84;100495.78;5022665;28;20054;-62
2024/01/04 10:42:27;;;;;;;11.23;8.95;;;;;;;18.17;44.68;100490.41;5023840;28;20050;-61
2024/01/04 10:44:56;;;;;;;13.32;9.27;;;;;;;18.17;44.95;100471.66;5020254;28;20049;-61
2024/01/04 10:47:24;;;;;;;11.73;8.95;;;;;;;18.18;44.94;100473.34;5024255;28;20045;-63
2024/01/04 10:49:57;;;;;;;9.20;7.95;;;;;;;18.19;44.90;100475.06;5024856;28;20049;-66
2024/01/04 10:52:27;;;;;;;;;;;;;;;18.17;44.99;100479.69;5023245;28;20467;-67
2024/01/04 10:54:59;;;;;;;11.88;7.80;;;;;;;18.21;45.03;100485.66;5026733;28;19928;-56
2024/01/04 10:57:31;;;;;;;11.40;8.02;;;;;;;18.23;45.00;100487.22;5029658;28;20049;-59
2024/01/04 11:00:02;;;;;;;9.90;8.90;;;;;;;18.25;45.08;100476.34;5023159;28;20062;-54
2024/01/04 11:02:33;;;;;;;11.90;7.57;;;;;;;18.28;45.20;100482.31;5036513;28;20398;-57
2024/01/04 11:05:03;;;;;;;8.65;7.25;;;;;;;18.35;45.57;100487.13;5034159;28;20046;-55
2024/01/04 11:07:31;;;;;;;10.80;6.93;;;;;;;18.38;45.65;100478.81;5026933;28;20415;-54
2024/01/04 11:09:59;;;;;;;7.22;5.63;;;;;;;18.40;45.74;100472.34;5029176;28;20400;-54
2024/01/04 11:12:29;;;;;;;9.82;5.68;;;;;;;18.45;45.81;100477.31;5039294;28;20045;-55
2024/01/04 11:14:57;;;;;;;7.38;5.28;;;;;;;18.47;45.72;100475.31;5028453;28;20052;-54
2024/01/04 11:17:47;;;;;;;9.30;5.57;;;;;;;18.48;45.74;100463.63;5026670;28;20050;-55
2024/01/04 11:20:26;;;;;;;8.27;5.82;;;;;;;18.52;45.89;100457.03;5032225;28;20049;-55
2024/01/04 11:23:29;;;;;;;7.18;5.25;;;;;;;18.56;46.21;100445.03;5027441;28;20416;-54
2024/01/04 11:26:16;;;;;;;9.40;5.40;;;;;;;18.59;46.25;100444.75;5032085;28;20052;-55
2024/01/04 11:28:45;;;;;;;8.60;5.55;;;;;;;18.62;46.54;100443.63;5029737;28;20065;-62